createdAt,value
2022-11-04T00:01:06.786Z,5.53
2022-11-04T00:03:12.754Z,5.60
2022-11-04T00:05:18.042Z,5.35
2022-11-04T00:07:35.229Z,4.63
2022-11-04T00:09:40.223Z,3.88
2022-11-04T00:11:58.041Z,4.45
2022-11-04T00:14:08.388Z,6.50
2022-11-04T00:16:27.328Z,6.00
2022-11-04T00:18:32.643Z,6.40
2022-11-04T00:20:50.639Z,5.97
2022-11-04T00:23:08.204Z,6.53
2022-11-04T00:25:26.621Z,6.13
2022-11-04T00:27:44.079Z,6.05
2022-11-04T00:32:09.049Z,6.15
2022-11-04T00:34:14.006Z,6.03
2022-11-04T00:36:19.798Z,6.07
2022-11-04T00:38:27.199Z,5.90
2022-11-04T00:40:44.558Z,4.82
2022-11-04T00:44:58.979Z,5.65
2022-11-04T00:47:04.245Z,5.47
2022-11-04T00:49:09.606Z,5.40
2022-11-04T00:51:15.602Z,5.05
2022-11-04T00:53:20.859Z,4.72
2022-11-04T00:55:27.013Z,4.18
2022-11-04T00:57:32.327Z,4.32
2022-11-04T00:59:37.604Z,4.30
2022-11-04T01:01:45.790Z,3.50
2022-11-04T01:03:53.196Z,4.40
2022-11-04T01:06:01.724Z,3.28
2022-11-04T01:08:07.526Z,3.40
2022-11-04T01:10:14.559Z,3.88
2022-11-04T01:12:20.826Z,3.40
2022-11-04T01:14:28.386Z,3.78
2022-11-04T01:16:33.948Z,3.42
2022-11-04T01:18:44.831Z,3.67
2022-11-04T01:20:50.819Z,3.28
2022-11-04T01:22:55.973Z,3.60
2022-11-04T01:25:01.106Z,2.47
2022-11-04T01:27:06.469Z,3.38
2022-11-04T01:29:11.964Z,3.88
2022-11-04T01:31:21.850Z,3.40
2022-11-04T01:33:29.207Z,3.42
2022-11-04T01:35:38.281Z,3.38
2022-11-04T01:37:44.574Z,3.42
2022-11-04T01:39:49.490Z,3.47
2022-11-04T01:41:55.383Z,3.50
2022-11-04T01:44:03.334Z,3.70
2022-11-04T01:46:09.308Z,3.60
2022-11-04T01:48:23.194Z,3.10
2022-11-04T01:50:32.948Z,3.30
2022-11-04T01:52:48.621Z,3.90
2022-11-04T01:54:55.679Z,3.95
2022-11-04T01:57:03.694Z,3.45
2022-11-04T01:59:14.750Z,3.85
2022-11-04T02:01:19.938Z,3.83
2022-11-04T02:03:33.055Z,3.88
2022-11-04T02:05:38.222Z,3.50
2022-11-04T02:07:46.454Z,2.58
2022-11-04T02:09:52.161Z,3.38
2022-11-04T02:12:11.011Z,3.20
2022-11-04T02:14:17.098Z,3.55
2022-11-04T02:16:29.850Z,3.10
2022-11-04T02:18:54.360Z,2.55
2022-11-04T02:21:52.972Z,3.20
2022-11-04T02:24:42.633Z,2.97
2022-11-04T02:27:42.452Z,2.88
2022-11-04T02:30:08.264Z,2.70
2022-11-04T02:32:23.003Z,2.72
2022-11-04T02:34:37.923Z,2.22
2022-11-04T02:36:49.086Z,2.20
2022-11-04T02:39:00.567Z,2.47
2022-11-04T02:41:18.154Z,2.80
2022-11-04T02:43:29.913Z,2.10
2022-11-04T02:45:45.243Z,2.30
2022-11-04T02:47:57.411Z,2.20
2022-11-04T02:50:11.432Z,2.08
2022-11-04T02:52:21.651Z,1.95
2022-11-04T02:54:34.044Z,2.00
2022-11-04T02:56:46.219Z,1.70
2022-11-04T02:59:01.638Z,2.08
2022-11-04T03:01:14.565Z,1.80
2022-11-04T03:03:25.872Z,1.55
2022-11-04T03:05:36.615Z,1.90
2022-11-04T03:07:45.374Z,1.80
2022-11-04T03:09:58.567Z,1.80
2022-11-04T03:12:09.104Z,1.90
2022-11-04T03:14:19.777Z,1.67
2022-11-04T03:16:38.399Z,1.30
2022-11-04T03:18:57.509Z,1.20
2022-11-04T03:21:08.979Z,0.98
2022-11-04T03:23:16.036Z,0.70
2022-11-04T03:25:23.790Z,0.70
2022-11-04T03:30:02.682Z,0.60
2022-11-04T03:32:24.991Z,0.50
2022-11-04T03:34:31.285Z,0.80
2022-11-04T03:36:36.787Z,0.70
2022-11-04T03:38:44.119Z,0.75
2022-11-04T03:40:49.860Z,0.88
2022-11-04T03:43:01.203Z,0.68
2022-11-04T03:45:07.536Z,0.80
2022-11-04T03:47:15.574Z,0.80
2022-11-04T03:49:22.573Z,0.38
2022-11-04T03:51:28.961Z,0.63
2022-11-04T03:53:35.543Z,0.68
2022-11-04T03:55:53.447Z,0.47
2022-11-04T03:58:04.458Z,0.50
2022-11-04T04:00:15.730Z,0.55
2022-11-04T04:02:30.143Z,0.60
2022-11-04T04:04:40.301Z,0.40
2022-11-04T04:06:48.298Z,0.63
2022-11-04T04:09:00.852Z,0.70
2022-11-04T04:11:16.810Z,0.50
2022-11-04T04:13:38.510Z,0.98
2022-11-04T04:15:49.975Z,0.50
2022-11-04T04:18:01.872Z,0.70
2022-11-04T04:20:12.264Z,0.70
2022-11-04T04:22:22.753Z,0.90
2022-11-04T04:24:47.795Z,0.63
2022-11-04T04:27:07.478Z,0.70
2022-11-04T04:29:13.645Z,0.47
2022-11-04T04:31:42.071Z,0.60
2022-11-04T04:33:50.899Z,0.80
2022-11-04T04:35:59.755Z,0.80
2022-11-04T04:38:21.697Z,0.85
2022-11-04T04:40:43.891Z,1.00
2022-11-04T04:43:13.335Z,1.10
2022-11-04T04:45:26.220Z,1.40
2022-11-04T04:47:45.065Z,1.40
2022-11-04T04:50:00.147Z,1.40
2022-11-04T04:52:07.624Z,1.20
2022-11-04T04:54:12.628Z,1.42
2022-11-04T04:56:17.805Z,1.40
2022-11-04T04:58:23.592Z,1.00
2022-11-04T05:00:29.559Z,1.05
2022-11-04T05:02:34.865Z,1.50
2022-11-04T05:04:40.535Z,1.30
2022-11-04T05:06:51.001Z,1.20
2022-11-04T05:08:57.314Z,1.40
2022-11-04T05:11:02.568Z,1.40
2022-11-04T05:13:20.605Z,1.50
2022-11-04T05:17:34.199Z,1.50
2022-11-04T05:19:39.528Z,1.70
2022-11-04T05:21:47.052Z,1.50
2022-11-04T05:23:52.346Z,1.40
2022-11-04T05:26:00.567Z,1.50
2022-11-04T05:28:06.548Z,1.50
2022-11-04T05:30:14.073Z,1.55
2022-11-04T05:32:21.545Z,1.08
2022-11-04T05:34:26.898Z,1.60
2022-11-04T05:36:33.498Z,1.30
2022-11-04T05:38:44.916Z,1.25
2022-11-04T05:40:50.591Z,1.38
2022-11-04T05:42:56.236Z,1.58
2022-11-04T05:45:03.482Z,1.40
2022-11-04T05:47:11.220Z,1.45
2022-11-04T05:49:16.670Z,1.38
2022-11-04T05:51:25.612Z,1.20
2022-11-04T05:55:38.550Z,1.58
2022-11-04T05:57:43.847Z,1.42
2022-11-04T05:59:48.792Z,1.58
2022-11-04T06:01:54.239Z,1.63
2022-11-04T06:04:01.004Z,2.10
2022-11-04T06:06:06.332Z,2.08
2022-11-04T06:08:11.663Z,1.83
2022-11-04T06:10:17.336Z,2.30
2022-11-04T06:12:26.124Z,2.13
2022-11-04T06:16:37.182Z,5.05
2022-11-04T06:18:42.424Z,1.70
2022-11-04T06:20:47.461Z,1.98
2022-11-04T06:22:55.464Z,1.92
2022-11-04T06:25:00.873Z,1.98
2022-11-04T06:27:09.809Z,1.63
2022-11-04T06:29:17.550Z,1.88
2022-11-04T06:31:24.517Z,1.92
2022-11-04T06:33:36.760Z,1.70
2022-11-04T06:35:42.076Z,2.00
2022-11-04T06:37:47.984Z,2.30
2022-11-04T06:39:52.998Z,1.90
2022-11-04T06:41:59.632Z,1.75
2022-11-04T06:44:09.209Z,1.80
2022-11-04T06:46:36.527Z,1.77
2022-11-04T06:50:46.754Z,2.05
2022-11-04T06:52:52.159Z,2.20
2022-11-04T06:54:58.556Z,2.90
2022-11-04T06:57:03.740Z,2.38
2022-11-04T06:59:11.853Z,2.83
2022-11-04T07:01:22.972Z,3.50
2022-11-04T07:03:30.758Z,3.63
2022-11-04T07:05:37.821Z,4.35
2022-11-04T07:07:43.947Z,5.10
2022-11-04T07:09:49.544Z,12.82
2022-11-04T07:11:56.157Z,8.30
2022-11-04T07:14:04.429Z,7.43
2022-11-04T07:16:13.786Z,7.28
2022-11-04T07:18:20.260Z,6.50
2022-11-04T07:20:29.713Z,7.10
2022-11-04T07:22:34.991Z,6.22
2022-11-04T07:24:42.383Z,8.75
2022-11-04T07:26:47.594Z,11.20
2022-11-04T07:28:53.915Z,7.82
2022-11-04T07:31:00.777Z,8.40
2022-11-04T07:33:06.470Z,6.60
2022-11-04T07:35:12.819Z,6.18
2022-11-04T07:37:22.546Z,6.03
2022-11-04T07:39:28.246Z,5.93
2022-11-04T07:41:37.724Z,4.70
2022-11-04T07:43:46.952Z,5.05
2022-11-04T07:46:05.248Z,4.80
2022-11-04T07:48:11.346Z,3.47
2022-11-04T07:50:18.451Z,3.63
2022-11-04T07:52:26.402Z,3.97
2022-11-04T07:54:40.532Z,4.32
2022-11-04T07:56:46.546Z,4.13
2022-11-04T07:58:52.589Z,3.92
2022-11-04T08:01:07.725Z,3.38
2022-11-04T08:03:13.044Z,3.25
2022-11-04T08:05:20.958Z,3.28
2022-11-04T08:07:29.535Z,3.95
2022-11-04T08:09:37.743Z,4.25
2022-11-04T08:11:43.112Z,4.07
2022-11-04T08:13:51.374Z,3.78
2022-11-04T08:15:56.380Z,3.35
2022-11-04T08:18:02.046Z,3.58
2022-11-04T08:20:10.059Z,3.95
2022-11-04T08:22:15.850Z,3.30
2022-11-04T08:24:25.484Z,3.30
2022-11-04T08:26:30.540Z,3.47
2022-11-04T08:28:36.397Z,3.70
2022-11-04T08:30:42.782Z,3.78
2022-11-04T08:32:50.218Z,2.88
2022-11-04T08:34:56.447Z,3.15
2022-11-04T08:37:01.409Z,2.97
2022-11-04T08:39:11.876Z,3.13
2022-11-04T08:41:23.888Z,2.17
2022-11-04T08:43:31.832Z,2.40
2022-11-04T08:47:42.312Z,2.20
2022-11-04T08:49:52.650Z,2.42
2022-11-04T08:52:00.646Z,2.20
2022-11-04T08:54:05.961Z,1.85
2022-11-04T08:56:21.537Z,2.60
2022-11-04T08:58:29.800Z,2.42
2022-11-04T09:00:36.568Z,2.90
2022-11-04T09:02:43.651Z,1.98
2022-11-04T09:04:48.857Z,2.22
2022-11-04T09:06:57.440Z,1.90
2022-11-04T09:09:04.843Z,1.90
2022-11-04T09:11:12.819Z,2.03
2022-11-04T09:15:26.171Z,1.95
2022-11-04T09:17:33.007Z,1.88
2022-11-04T09:19:38.695Z,2.03
2022-11-04T09:21:45.374Z,2.22
2022-11-04T09:23:50.479Z,2.65
2022-11-04T09:25:57.183Z,2.35
2022-11-04T09:28:02.586Z,2.58
2022-11-04T09:30:13.016Z,1.85
2022-11-04T09:32:20.382Z,2.20
2022-11-04T09:34:27.003Z,2.60
2022-11-04T09:36:31.959Z,2.40
2022-11-04T09:38:37.022Z,2.20
2022-11-04T09:40:44.217Z,2.72
2022-11-04T09:43:07.494Z,2.63
2022-11-04T09:45:23.055Z,2.85
2022-11-04T09:47:29.951Z,2.45
2022-11-04T09:49:39.844Z,2.20
2022-11-04T09:51:54.397Z,3.00
2022-11-04T09:54:07.647Z,2.88
2022-11-04T09:56:21.860Z,3.55
2022-11-04T09:58:27.989Z,2.97
2022-11-04T10:00:39.682Z,2.55
2022-11-04T10:03:06.793Z,2.70
2022-11-04T10:05:31.227Z,3.17
2022-11-04T10:07:51.136Z,2.55
2022-11-04T10:10:09.428Z,2.40
2022-11-04T10:12:35.178Z,2.30
2022-11-04T10:15:08.426Z,3.17
2022-11-04T10:17:36.987Z,2.40
2022-11-04T10:19:57.636Z,2.20
2022-11-04T10:22:13.610Z,2.30
2022-11-04T10:24:27.871Z,2.33
2022-11-04T10:26:44.558Z,2.50
2022-11-04T10:28:59.544Z,2.22
2022-11-04T10:31:05.888Z,2.42
2022-11-04T10:33:27.908Z,2.63
2022-11-04T10:35:47.850Z,2.67
2022-11-04T10:37:57.770Z,2.47
2022-11-04T10:40:20.692Z,2.35
2022-11-04T10:42:26.716Z,1.90
2022-11-04T10:44:35.812Z,1.30
2022-11-04T10:46:55.565Z,1.77
2022-11-04T10:49:14.821Z,1.63
2022-11-04T10:51:24.319Z,1.65
2022-11-04T10:53:32.423Z,1.70
2022-11-04T10:55:50.921Z,1.52
2022-11-04T10:58:00.096Z,1.60
2022-11-04T11:00:08.917Z,1.58
2022-11-04T11:02:13.982Z,1.95
2022-11-04T11:04:31.387Z,1.23
2022-11-04T11:06:39.256Z,1.77
2022-11-04T11:08:46.169Z,1.45
2022-11-04T11:10:56.633Z,1.70
2022-11-04T11:13:04.777Z,1.73
2022-11-04T11:15:35.858Z,1.88
2022-11-04T11:17:44.329Z,1.77
2022-11-04T11:19:57.822Z,1.92
2022-11-04T11:22:03.199Z,1.60
2022-11-04T11:24:19.690Z,1.70
2022-11-04T11:26:33.068Z,1.83
2022-11-04T11:28:40.775Z,1.25
2022-11-04T11:31:01.526Z,1.30
2022-11-04T11:33:18.989Z,1.02
2022-11-04T11:35:34.532Z,1.38
2022-11-04T11:37:41.368Z,1.40
2022-11-04T11:39:48.866Z,1.35
2022-11-04T11:42:00.929Z,1.70
2022-11-04T11:44:20.541Z,0.90
2022-11-04T11:46:29.026Z,1.17
2022-11-04T11:48:42.806Z,1.52
2022-11-04T11:51:02.317Z,0.98
2022-11-04T11:53:18.271Z,0.88
2022-11-04T11:55:29.285Z,1.05
2022-11-04T12:00:38.038Z,1.40
2022-11-04T12:02:59.482Z,0.95
2022-11-04T12:10:49.028Z,1.77
2022-11-04T12:13:06.397Z,1.33
2022-11-04T12:15:39.503Z,1.40
2022-11-04T12:18:05.677Z,1.70
2022-11-04T12:20:28.652Z,1.60
2022-11-04T12:22:47.947Z,1.60
2022-11-04T12:25:06.253Z,1.67
2022-11-04T12:27:21.384Z,1.25
2022-11-04T12:29:50.242Z,1.27
2022-11-04T12:35:14.192Z,1.20
2022-11-04T12:37:36.163Z,1.33
2022-11-04T12:40:04.664Z,1.20
2022-11-04T12:42:28.064Z,1.05
2022-11-04T12:44:44.772Z,1.23
2022-11-04T12:46:59.749Z,1.60
2022-11-04T12:49:43.284Z,1.40
2022-11-04T12:51:57.755Z,1.48
2022-11-04T12:54:35.602Z,1.30
2022-11-04T12:56:43.772Z,1.70
2022-11-04T12:59:37.419Z,1.55
2022-11-04T13:01:52.050Z,1.52
2022-11-04T13:04:02.804Z,1.60
2022-11-04T13:06:13.188Z,1.40
2022-11-04T13:08:28.652Z,1.20
2022-11-04T13:10:46.912Z,1.83
2022-11-04T13:12:58.190Z,1.40
2022-11-04T13:15:08.288Z,1.42
2022-11-04T13:17:20.683Z,1.35
2022-11-04T13:19:33.452Z,1.23
2022-11-04T13:21:40.923Z,1.27
2022-11-04T13:23:54.706Z,1.08
2022-11-04T13:26:05.277Z,1.20
2022-11-04T13:28:20.171Z,0.98
2022-11-04T13:30:34.100Z,0.95
2022-11-04T13:32:48.954Z,1.23
2022-11-04T13:35:04.586Z,1.15
2022-11-04T13:37:27.954Z,1.27
2022-11-04T13:39:37.744Z,1.38
2022-11-04T13:42:30.266Z,2.15
2022-11-04T13:44:44.754Z,1.25
2022-11-04T13:46:55.268Z,1.55
2022-11-04T13:49:18.957Z,1.38
2022-11-04T13:51:24.144Z,1.27
2022-11-04T13:53:47.719Z,1.48
2022-11-04T13:55:56.219Z,1.27
2022-11-04T13:58:09.205Z,1.10
2022-11-04T14:00:31.784Z,0.95
2022-11-04T14:02:44.643Z,1.15
2022-11-04T14:04:50.073Z,1.13
2022-11-04T14:07:04.007Z,1.17
2022-11-04T14:09:58.229Z,1.60
2022-11-04T14:12:36.901Z,1.42
2022-11-04T14:14:44.187Z,1.48
2022-11-04T14:16:54.000Z,1.75
2022-11-04T14:18:59.340Z,1.88
2022-11-04T14:21:10.793Z,2.00
2022-11-04T14:23:27.024Z,2.17
2022-11-04T14:25:42.727Z,1.88
2022-11-04T14:27:52.024Z,2.30
2022-11-04T14:29:58.087Z,1.50
2022-11-04T14:32:15.892Z,2.17
2022-11-04T14:34:30.847Z,1.83
2022-11-04T14:36:47.478Z,1.83
2022-11-04T14:38:58.631Z,2.00
2022-11-04T14:41:25.179Z,1.60
2022-11-04T14:43:36.777Z,2.30
2022-11-04T14:45:44.641Z,1.70
2022-11-04T14:47:58.308Z,1.90
2022-11-04T14:50:09.048Z,1.70
2022-11-04T14:52:27.260Z,1.83
2022-11-04T14:54:35.983Z,1.85
2022-11-04T14:56:42.012Z,2.28
2022-11-04T14:59:01.327Z,1.58
2022-11-04T15:01:12.122Z,1.83
2022-11-04T15:04:09.617Z,2.10
2022-11-04T15:08:03.755Z,2.30
2022-11-04T15:10:25.045Z,2.10
2022-11-04T15:12:43.022Z,2.45
2022-11-04T15:14:48.648Z,1.98
2022-11-04T15:16:57.459Z,1.83
2022-11-04T15:19:05.433Z,1.92
2022-11-04T15:21:15.073Z,2.03
2022-11-04T15:23:30.034Z,2.03
2022-11-04T15:25:36.878Z,2.30
2022-11-04T15:27:43.739Z,2.00
2022-11-04T15:29:57.669Z,2.00
2022-11-04T15:32:07.169Z,2.53
2022-11-04T15:34:17.672Z,2.17
2022-11-04T15:36:27.287Z,2.60
2022-11-04T15:38:33.190Z,2.25
2022-11-04T15:40:43.024Z,2.20
2022-11-04T15:42:47.057Z,2.20
2022-11-04T15:44:56.572Z,2.83
2022-11-04T15:47:07.943Z,2.83
2022-11-04T15:49:30.015Z,2.70
2022-11-04T15:51:42.827Z,2.47
2022-11-04T15:53:58.867Z,2.38
2022-11-04T15:56:07.242Z,2.70
2022-11-04T15:58:17.196Z,2.33
2022-11-04T16:00:29.892Z,2.42
2022-11-04T16:02:39.329Z,2.17
2022-11-04T16:05:04.121Z,3.20
2022-11-04T16:07:25.889Z,2.58
2022-11-04T16:09:32.222Z,2.22
2022-11-04T16:11:38.343Z,1.83
2022-11-04T16:13:45.545Z,2.00
2022-11-04T16:15:55.289Z,2.70
2022-11-04T16:18:02.780Z,2.63
2022-11-04T16:22:34.269Z,2.53
2022-11-04T16:24:43.208Z,2.50
2022-11-04T16:26:49.594Z,2.90
2022-11-04T16:28:57.978Z,3.72
2022-11-04T16:31:05.450Z,3.70
2022-11-04T16:33:13.483Z,2.50
2022-11-04T16:35:26.846Z,3.63
2022-11-04T16:37:33.719Z,3.50
2022-11-04T16:39:39.802Z,4.50
2022-11-04T16:41:45.141Z,4.85
2022-11-04T16:43:51.381Z,4.40
2022-11-04T16:48:29.073Z,3.80
2022-11-04T16:50:36.653Z,4.10
2022-11-04T16:52:44.316Z,4.00
2022-11-04T16:54:51.131Z,3.90
2022-11-04T16:56:56.995Z,3.92
2022-11-04T16:59:02.011Z,4.07
2022-11-04T17:01:07.273Z,4.18
2022-11-04T17:03:21.495Z,3.78
2022-11-04T17:05:26.643Z,3.90
2022-11-04T17:07:51.487Z,3.67
2022-11-04T17:09:57.727Z,3.28
2022-11-04T17:12:02.754Z,3.80
2022-11-04T17:14:07.734Z,3.85
2022-11-04T17:16:16.193Z,3.72
2022-11-04T17:18:21.823Z,15.63
2022-11-04T17:20:27.200Z,10.32
2022-11-04T17:22:35.330Z,4.90
2022-11-04T17:24:40.375Z,4.25
2022-11-04T17:26:45.357Z,4.25
2022-11-04T17:28:50.362Z,4.10
2022-11-04T17:30:55.823Z,4.82
2022-11-04T17:33:00.920Z,5.85
2022-11-04T17:35:06.536Z,7.60
2022-11-04T17:37:14.819Z,7.55
2022-11-04T17:39:22.749Z,8.52
2022-11-04T17:43:57.596Z,5.35
2022-11-04T17:46:22.728Z,5.13
2022-11-04T17:48:27.691Z,5.00
2022-11-04T17:50:32.852Z,6.38
2022-11-04T17:52:38.298Z,5.80
2022-11-04T17:54:46.202Z,5.63
2022-11-04T17:58:56.354Z,5.10
2022-11-04T18:01:05.767Z,5.32
2022-11-04T18:03:12.893Z,5.35
2022-11-04T18:05:18.126Z,5.23
2022-11-04T18:07:23.388Z,4.57
2022-11-04T18:09:28.715Z,5.22
2022-11-04T18:11:48.963Z,5.55
2022-11-04T18:13:53.915Z,5.95
2022-11-04T18:15:59.049Z,6.18
2022-11-04T18:18:04.246Z,5.80
2022-11-04T18:20:13.894Z,5.00
2022-11-04T18:22:19.226Z,4.85
2022-11-04T18:24:25.109Z,4.90
2022-11-04T18:26:30.166Z,4.72
2022-11-04T18:28:39.427Z,5.10
2022-11-04T18:30:45.132Z,5.00
2022-11-04T18:32:50.170Z,4.70
2022-11-04T18:34:55.590Z,4.65
2022-11-04T18:37:00.895Z,4.47
2022-11-04T18:39:06.831Z,4.30
2022-11-04T18:41:12.550Z,4.70
2022-11-04T18:43:19.202Z,4.18
2022-11-04T18:45:27.120Z,4.15
2022-11-04T18:47:33.679Z,5.05
2022-11-04T18:49:38.656Z,4.40
2022-11-04T18:51:44.378Z,4.30
2022-11-04T18:53:52.242Z,6.18
2022-11-04T19:00:17.021Z,5.75
2022-11-04T19:02:26.327Z,5.57
2022-11-04T19:04:31.491Z,5.93
2022-11-04T19:06:39.234Z,6.10
2022-11-04T19:08:46.862Z,6.15
2022-11-04T19:13:22.119Z,6.05
2022-11-04T19:15:30.503Z,5.13
2022-11-04T19:17:39.123Z,6.10
2022-11-04T19:19:45.156Z,6.10
2022-11-04T19:21:50.573Z,6.00
2022-11-04T19:23:58.336Z,5.05
2022-11-04T19:26:08.487Z,5.43
2022-11-04T19:28:34.516Z,5.43
2022-11-04T19:30:39.395Z,6.18
2022-11-04T19:32:46.931Z,5.07
2022-11-04T19:34:52.253Z,4.72
2022-11-04T19:36:57.223Z,4.55
2022-11-04T19:39:02.944Z,4.28
2022-11-04T19:41:31.373Z,5.10
2022-11-04T19:43:34.523Z,5.03
2022-11-04T19:45:43.126Z,5.20
2022-11-04T19:47:50.749Z,5.30
2022-11-04T19:49:55.783Z,6.00
2022-11-04T19:52:01.299Z,6.03
2022-11-04T19:54:07.389Z,7.30
2022-11-04T19:56:18.309Z,5.55
2022-11-04T19:58:24.422Z,5.95
2022-11-04T20:00:29.387Z,5.88
2022-11-04T20:02:34.831Z,5.30
2022-11-04T20:04:42.776Z,6.00
2022-11-04T20:08:53.022Z,5.00
2022-11-04T20:10:58.314Z,4.03
2022-11-04T20:13:16.060Z,4.65
2022-11-04T20:15:21.079Z,5.00
2022-11-04T20:17:26.928Z,4.03
2022-11-04T20:19:31.964Z,4.45
2022-11-04T20:21:40.505Z,4.97
2022-11-04T20:23:46.263Z,4.60
2022-11-04T20:25:52.554Z,5.30
2022-11-04T20:27:57.527Z,5.47
2022-11-04T20:30:02.553Z,6.50
2022-11-04T20:32:08.437Z,6.72
2022-11-04T20:34:16.532Z,6.70
2022-11-04T20:36:27.349Z,6.53
2022-11-04T20:38:35.821Z,6.50
2022-11-04T20:40:40.800Z,6.82
2022-11-04T20:42:47.828Z,6.65
2022-11-04T20:44:53.834Z,7.28
2022-11-04T20:46:59.143Z,7.70
2022-11-04T20:49:06.401Z,7.18
2022-11-04T20:51:13.085Z,7.05
2022-11-04T20:53:18.375Z,6.60
2022-11-04T20:55:28.225Z,6.72
2022-11-04T20:57:33.178Z,6.15
2022-11-04T20:59:38.314Z,8.88
2022-11-04T21:01:46.720Z,8.07
2022-11-04T21:03:51.770Z,6.25
2022-11-04T21:05:57.204Z,7.13
2022-11-04T21:08:02.142Z,7.05
2022-11-04T21:10:08.405Z,6.22
2022-11-04T21:12:16.246Z,6.80
2022-11-04T21:14:21.970Z,6.85
2022-11-04T21:16:27.786Z,7.30
2022-11-04T21:18:33.475Z,7.57
2022-11-04T21:20:39.757Z,7.70
2022-11-04T21:22:45.047Z,8.45
2022-11-04T21:24:50.304Z,10.32
2022-11-04T21:26:55.771Z,8.73
2022-11-04T21:29:05.346Z,9.05
2022-11-04T21:31:13.879Z,9.60
2022-11-04T21:33:20.251Z,8.13
2022-11-04T21:35:25.211Z,8.73
2022-11-04T21:37:33.613Z,8.63
2022-11-04T21:39:42.895Z,8.55
2022-11-04T21:41:47.977Z,10.02
2022-11-04T21:43:57.937Z,10.25
2022-11-04T21:46:11.145Z,9.93
2022-11-04T21:48:16.088Z,9.82
2022-11-04T21:50:21.593Z,10.07
2022-11-04T21:52:26.618Z,9.77
2022-11-04T21:54:31.581Z,10.00
2022-11-04T21:56:37.026Z,9.63
2022-11-04T21:58:43.040Z,9.45
2022-11-04T22:00:48.038Z,9.43
2022-11-04T22:02:55.693Z,8.43
2022-11-04T22:05:00.737Z,8.02
2022-11-04T22:07:06.557Z,9.13
2022-11-04T22:09:12.750Z,8.75
2022-11-04T22:11:21.560Z,8.65
2022-11-04T22:13:27.113Z,8.73
2022-11-04T22:15:45.971Z,8.38
2022-11-04T22:17:50.881Z,7.88
2022-11-04T22:19:58.622Z,8.65
2022-11-04T22:24:09.774Z,7.97
2022-11-04T22:26:16.961Z,9.57
2022-11-04T22:28:22.136Z,8.23
2022-11-04T22:30:30.010Z,8.38
2022-11-04T22:32:35.235Z,8.80
2022-11-04T22:34:40.190Z,9.48
2022-11-04T22:36:47.718Z,8.88
2022-11-04T22:38:53.367Z,10.00
2022-11-04T22:40:59.779Z,9.95
2022-11-04T22:43:04.974Z,11.02
2022-11-04T22:45:16.432Z,10.55
2022-11-04T22:47:21.796Z,13.88
2022-11-04T22:49:26.903Z,16.42
2022-11-04T22:51:32.563Z,9.77
2022-11-04T22:53:41.167Z,12.48
2022-11-04T22:55:46.124Z,9.02
2022-11-04T22:57:51.049Z,8.45
2022-11-04T22:59:56.094Z,8.32
2022-11-04T23:02:01.105Z,10.48
2022-11-04T23:04:11.914Z,9.77
2022-11-04T23:06:17.014Z,9.00
2022-11-04T23:08:22.087Z,8.85
2022-11-04T23:10:42.162Z,9.52
2022-11-04T23:12:59.610Z,9.68
2022-11-04T23:17:37.962Z,8.68
2022-11-04T23:19:43.392Z,8.23
2022-11-04T23:22:01.219Z,8.20
2022-11-04T23:24:19.940Z,8.70
2022-11-04T23:26:27.981Z,9.52
2022-11-04T23:28:45.418Z,10.05
2022-11-04T23:33:01.226Z,7.80
2022-11-04T23:35:19.468Z,8.30
2022-11-04T23:37:21.853Z,8.32
2022-11-04T23:39:26.800Z,8.40
2022-11-04T23:41:47.242Z,8.68
2022-11-04T23:43:52.212Z,7.57
2022-11-04T23:46:10.368Z,7.60
2022-11-04T23:48:28.923Z,7.75
2022-11-04T23:50:49.762Z,7.30
2022-11-04T23:53:07.688Z,6.95
2022-11-04T23:55:25.512Z,7.78
2022-11-04T23:57:45.526Z,7.70
